クアラルンプール の空港の天気 - METARとTAF

クアラルンプール国際空港 ( WMKK / KUL ) - マレーシア スランゴール州セパン
飛行場実況気象(Metar)
観測時間10/19 07:00 MYT (10/18 23:00 UTC)
風向・風速東北東 2m/s
視程4000m
天気現象煙霧
少しの雲 雲底高度 910m
全天の8割程度の雲 雲底高度 8530m
気温26℃
湿度94%
気圧1010hPa
METARWMKK 182300Z 07003KT 030V120 4000 HZ FEW030 BKN280 26/25 Q1010 NOSIG
過去の天気等 Google飛行場航空写真 Wunderground天気予報

過去48時間のMETAR

飛行場予報(TAF)
発表時間: 10/19 07:00 MYT (10/18 23:00 UTC)
予報対象時間: 19日8時 MYT ~ 20日14時 MYT
風向・風速西南西 3m/s
視程10km以上
少しの雲 雲底高度 910m
全天の8割程度の雲 雲底高度 8,530m
TAF WMKK 182300Z 1900/2006 24005KT 9999 FEW030 BKN280